Time;durP1;ratioP1;P1;durP2;ratioP2;P2;SDS_P1;SDS_P2;PMS_P1;PMS_P2;Temp;Humidity;BMP_temperature;BMP_pressure;BME280_temperature;BME280_humidity;BME280_pressure;Samples;Min_cycle;Max_cycle;Signal;HPM_P1;HPM_P2
2023/11/28 00:02:01;;;;;;;;;;;;;;;-2.08;100.00;99456.88;4990156;28;19926;-80
2023/11/28 00:04:29;;;;;;;;;;;;;;;-2.04;100.00;99463.38;5002023;28;19926;-80
2023/11/28 00:06:58;;;;;;;;;;;;;;;-2.12;100.00;99455.69;4993959;28;19933;-80
2023/11/28 00:09:26;;;;;;;;;;;;;;;-2.15;100.00;99456.97;4990405;28;19925;-81
2023/11/28 00:11:56;;;;;;;;;;;;;;;-2.14;100.00;99465.75;4984273;28;20397;-81
2023/11/28 00:14:28;;;;;;;;;;;;;;;-2.12;100.00;99463.69;4992890;28;19934;-81
2023/11/28 00:16:56;;;;;;;;;;;;;;;-2.18;100.00;99465.41;4983246;28;19925;-81
2023/11/28 00:19:24;;;;;;;;;;;;;;;-2.17;100.00;99469.69;4991858;28;20302;-81
2023/11/28 00:21:57;;;;;;;;;;;;;;;-2.25;100.00;99468.16;4990779;28;19926;-80
2023/11/28 00:24:30;;;;;;;;;;;;;;;-2.15;100.00;99464.16;4994439;28;19932;-81
2023/11/28 00:27:00;;;;;;;;;;;;;;;-2.23;100.00;99470.59;4988916;28;19930;-80
2023/11/28 00:29:28;;;;;;;;;;;;;;;-2.25;100.00;99468.16;4995284;28;19926;-81
2023/11/28 00:31:55;;;;;;;;;;;;;;;-2.30;100.00;99470.69;4992477;28;19930;-80
2023/11/28 00:34:29;;;;;;;;;;;;;;;-2.34;100.00;99476.69;4993088;28;19941;-80
2023/11/28 00:36:57;;;;;;;;;;;;;;;-2.35;100.00;99483.84;4990055;28;19933;-80
2023/11/28 00:39:25;;;;;;;;;;;;;;;-2.39;100.00;99474.69;4991338;28;20294;-80
2023/11/28 00:42:03;;;;;;;;;;;;;;;-2.35;100.00;99475.84;4987777;28;19925;-81
2023/11/28 00:44:36;;;;;;;;;;;;;;;-2.41;100.00;99479.44;4988307;28;20382;-81
2023/11/28 00:47:04;;;;;;;;;;;;;;;-2.46;100.00;99482.78;4990549;28;19949;-81
2023/11/28 00:49:40;;;;;;;;;;;;;;;-2.41;100.00;99477.56;5008204;28;19929;-80
2023/11/28 00:52:17;;;;;;;;;;;;;;;-2.47;100.00;99478.47;4987243;28;19926;-80
2023/11/28 00:54:45;;;;;;;;;;;;;;;-2.46;100.00;99487.28;4991861;28;19934;-81
2023/11/28 00:57:14;;;;;;;;;;;;;;;-2.55;100.00;99489.44;4991656;28;19933;-81
2023/11/28 00:59:42;;;;;;;;;;;;;;;-2.57;100.00;99483.50;4984344;28;19933;-80
2023/11/28 01:02:09;;;;;;;;;;;;;;;-2.59;100.00;99489.06;4991832;28;19926;-80
2023/11/28 01:04:37;;;;;;;;;;;;;;;-2.60;100.00;99483.97;4992988;28;20395;-81
2023/11/28 01:07:05;;;;;;;;;;;;;;;-2.62;100.00;99492.19;4991192;28;20526;-80
2023/11/28 01:09:33;;;;;;;;;;;;;;;-2.63;100.00;99495.88;4992421;28;20405;-80
2023/11/28 01:12:06;;;;;;;;;;;;;;;-2.66;100.00;99490.19;4993306;28;19930;-80
2023/11/28 01:14:36;;;;;;;;;;;;;;;-2.71;100.00;99493.50;4985697;28;19926;-81
2023/11/28 01:17:09;;;;;;;;;;;;;;;-2.72;100.00;99502.53;5000212;28;19933;-80
2023/11/28 01:19:42;;;;;;;;;;;;;;;-2.74;100.00;99493.94;4991972;28;19933;-81
2023/11/28 01:22:11;;;;;;;;;;;;;;;-2.75;100.00;99495.81;4991260;28;19926;-82
2023/11/28 01:24:44;;;;;;;;;;;;;;;-2.88;100.00;99495.94;4993262;28;19945;-80
2023/11/28 01:27:12;;;;;;;;;;;;;;;-2.94;100.00;99502.97;4994918;28;19936;-81
2023/11/28 01:29:41;;;;;;;;;;;;;;;-2.96;100.00;99504.22;4996662;28;19932;-81
2023/11/28 01:32:09;;;;;;;;;;;;;;;-2.83;100.00;99508.56;4988342;28;19933;-79
2023/11/28 01:34:37;;;;;;;;;;;;;;;-2.91;100.00;99513.16;5005812;28;19936;-80
2023/11/28 01:37:07;;;;;;;;;;;;;;;-2.93;100.00;99509.91;4993160;28;19926;-81
2023/11/28 01:39:35;;;;;;;;;;;;;;;-2.86;100.00;99509.03;4999390;28;19926;-80
2023/11/28 01:42:02;;;;;;;;;;;;;;;-2.83;100.00;99505.91;4990076;28;19926;-80
2023/11/28 01:44:35;;;;;;;;;;;;;;;-2.87;100.00;99508.22;4992067;28;19933;-81
2023/11/28 01:47:07;;;;;;;;;;;;;;;-2.87;100.00;99505.56;4987523;28;19925;-81
2023/11/28 01:49:41;;;;;;;;;;;;;;;-2.82;100.00;99519.00;4988391;28;19926;-80
2023/11/28 01:52:10;;;;;;;;;;;;;;;-2.79;100.00;99521.25;4990120;28;19934;-80
2023/11/28 01:54:38;;;;;;;;;;;;;;;-2.78;100.00;99519.38;4986282;28;19926;-80
2023/11/28 01:57:11;;;;;;;;;;;;;;;-2.88;100.00;99519.91;4997111;28;20374;-80
2023/11/28 01:59:41;;;;;;;;;;;;;;;-2.91;100.00;99520.34;4987213;28;19934;-83
2023/11/28 02:02:11;;;;;;;;;;;;;;;-2.95;100.00;99519.16;4979833;28;19949;-81
2023/11/28 02:04:39;;;;;;;;;;;;;;;-2.93;100.00;99514.41;4990759;28;19948;-81
2023/11/28 02:07:07;;;;;;;;;;;;;;;-2.96;100.00;99510.34;4991468;28;19929;-82
2023/11/28 02:09:36;;;;;;;;;;;;;;;-2.93;100.00;99517.91;4984752;28;19926;-83
2023/11/28 02:12:09;;;;;;;;;;;;;;;-2.94;100.00;99521.59;5003936;28;19926;-81
2023/11/28 02:14:45;;;;;;;;;;;;;;;-2.93;100.00;99520.56;5002303;28;19925;-82
2023/11/28 02:17:15;;;;;;;;;;;;;;;-2.98;100.00;99517.75;4990477;28;19925;-81
2023/11/28 02:19:43;;;;;;;;;;;;;;;-2.93;100.00;99527.72;4991691;28;20379;-80
2023/11/28 02:22:16;;;;;;;;;;;;;;;-2.92;100.00;99521.38;4984609;28;20374;-80
2023/11/28 02:24:51;;;;;;;;;;;;;;;-3.01;100.00;99528.00;5002324;28;19926;-81
2023/11/28 02:27:20;;;;;;;;;;;;;;;-3.01;100.00;99520.03;4988212;28;19937;-81
2023/11/28 02:29:48;;;;;;;;;;;;;;;-2.97;100.00;99537.19;5008979;28;19933;-82
2023/11/28 02:32:16;;;;;;;0.60;0.60;;;;;;;-2.93;100.00;99525.91;4993160;28;19932;-79
2023/11/28 02:34:45;;;;;;;0.25;0.25;;;;;;;-2.87;100.00;99531.34;4989882;28;20063;-81
2023/11/28 02:37:13;;;;;;;0.70;0.70;;;;;;;-2.87;100.00;99528.69;4990698;28;20046;-81
2023/11/28 02:39:46;;;;;;;0.50;0.50;;;;;;;-2.80;100.00;99526.81;4987164;28;20059;-81
2023/11/28 02:42:14;;;;;;;0.57;0.55;;;;;;;-2.82;100.00;99528.84;4986738;28;20733;-81
2023/11/28 02:44:44;;;;;;;1.27;0.77;;;;;;;-2.80;100.00;99532.13;4989654;28;20049;-81
2023/11/28 02:47:17;;;;;;;6.28;0.82;;;;;;;-2.89;100.00;99536.91;4983044;28;20530;-81
2023/11/28 02:49:46;;;;;;;0.70;0.70;;;;;;;-2.93;100.00;99549.03;4990369;28;20313;-81
2023/11/28 02:52:15;;;;;;;0.80;0.80;;;;;;;-2.97;100.00;99546.00;4987926;28;20063;-81
2023/11/28 02:54:43;;;;;;;1.50;1.10;;;;;;;-2.88;100.00;99543.06;5003579;28;20050;-81
2023/11/28 02:57:11;;;;;;;0.70;0.68;;;;;;;-2.94;100.00;99548.22;4990614;28;20058;-82
2023/11/28 02:59:39;;;;;;;0.82;0.75;;;;;;;-3.04;100.00;99550.53;4997529;28;20487;-83
2023/11/28 03:02:09;;;;;;;0.60;0.60;;;;;;;-3.03;100.00;99546.84;4987927;28;20058;-81
2023/11/28 03:04:42;;;;;;;0.85;0.85;;;;;;;-3.10;100.00;99538.94;4989354;28;20057;-81
2023/11/28 03:07:15;;;;;;;1.25;0.95;;;;;;;-3.12;100.00;99538.34;4980824;28;20411;-81
2023/11/28 03:09:49;;;;;;;2.28;1.25;;;;;;;-3.00;100.00;99549.06;4987796;28;20093;-81
2023/11/28 03:12:22;;;;;;;0.80;0.80;;;;;;;-3.00;100.00;99543.75;5003495;28;20435;-81
2023/11/28 03:14:50;;;;;;;0.60;0.60;;;;;;;-2.97;100.00;99540.69;5001896;28;20051;-81
2023/11/28 03:17:25;;;;;;;1.17;0.93;;;;;;;-3.04;100.00;99542.56;4988242;28;20058;-81
2023/11/28 03:19:53;;;;;;;1.40;0.85;;;;;;;-3.06;100.00;99535.84;4991392;28;20069;-82
2023/11/28 03:22:21;;;;;;;1.55;0.98;;;;;;;-3.04;100.00;99542.56;4989172;28;20057;-80
2023/11/28 03:24:51;;;;;;;0.73;0.73;;;;;;;-3.12;100.00;99540.16;5005097;28;20949;-80
2023/11/28 03:27:20;;;;;;;1.33;0.80;;;;;;;-3.11;100.00;99539.16;4988657;28;20077;-81
2023/11/28 03:29:49;;;;;;;0.70;0.60;;;;;;;-3.11;100.00;99539.16;4989654;28;20065;-81
2023/11/28 03:32:17;;;;;;;0.90;0.70;;;;;;;-3.06;100.00;99541.19;4987557;28;20726;-82
2023/11/28 03:34:51;;;;;;;0.77;0.77;;;;;;;-3.12;100.00;99533.03;4990739;28;20065;-81
2023/11/28 03:37:19;;;;;;;0.60;0.60;;;;;;;-3.14;100.00;99537.72;4987564;28;20058;-81
2023/11/28 03:39:53;;;;;;;2.45;1.58;;;;;;;-3.16;100.00;99542.47;4987614;28;20681;-81
2023/11/28 03:42:26;;;;;;;0.95;0.85;;;;;;;-3.20;100.00;99545.75;4994390;28;20046;-82
2023/11/28 03:44:59;;;;;;;0.55;0.55;;;;;;;-3.02;100.00;99548.50;4992692;28;20054;-80
2023/11/28 03:47:33;;;;;;;0.70;0.70;;;;;;;-3.08;100.00;99552.84;4989910;28;20053;-81
2023/11/28 03:50:03;;;;;;;0.73;0.73;;;;;;;-3.10;100.00;99546.91;4988995;28;20050;-82
2023/11/28 03:52:36;;;;;;;1.40;0.93;;;;;;;-3.16;100.00;99545.13;5005969;28;20050;-81
2023/11/28 03:55:10;;;;;;;10.35;0.80;;;;;;;-3.10;100.00;99546.09;4994886;28;20057;-80
2023/11/28 03:57:38;;;;;;;1.42;1.13;;;;;;;-3.15;100.00;99541.44;4993464;28;20062;-80
2023/11/28 04:00:14;;;;;;;0.93;0.90;;;;;;;-3.16;100.00;99546.97;4992377;28;20042;-80
2023/11/28 04:02:43;;;;;;;0.60;0.60;;;;;;;-3.11;100.00;99553.28;4993248;28;20491;-80
2023/11/28 04:05:13;;;;;;;0.43;0.43;;;;;;;-3.06;100.00;99552.63;4991859;28;20051;-81
2023/11/28 04:07:41;;;;;;;0.60;0.52;;;;;;;-3.08;100.00;99560.00;5000052;28;20066;-82
2023/11/28 04:10:14;;;;;;;0.93;0.80;;;;;;;-3.13;100.00;99562.53;4993577;28;20050;-82
2023/11/28 04:12:48;;;;;;;0.60;0.60;;;;;;;-3.11;100.00;99557.78;5005267;28;20051;-82
2023/11/28 04:15:17;;;;;;;1.95;0.90;;;;;;;-3.04;100.00;99563.06;4991628;28;20054;-81
2023/11/28 04:17:50;;;;;;;0.63;0.63;;;;;;;-3.03;100.00;99564.69;4989008;28;20065;-81
2023/11/28 04:20:20;;;;;;;0.63;0.63;;;;;;;-3.01;100.00;99560.78;4993799;28;20050;-81
2023/11/28 04:22:53;;;;;;;0.88;0.82;;;;;;;-3.04;100.00;99571.03;4997797;28;20415;-80
2023/11/28 04:25:22;;;;;;;0.50;0.50;;;;;;;-2.94;100.00;99580.16;4989365;28;20062;-81
2023/11/28 04:27:55;;;;;;;0.60;0.60;;;;;;;-2.94;100.00;99571.34;5003854;28;20051;-80
2023/11/28 04:30:29;;;;;;;0.95;0.88;;;;;;;-2.93;100.00;99576.47;4986979;28;20054;-81
2023/11/28 04:33:02;;;;;;;0.55;0.55;;;;;;;-2.93;100.00;99579.13;4996668;28;20050;-80
2023/11/28 04:35:32;;;;;;;0.90;0.88;;;;;;;-2.97;100.00;99579.78;4999489;28;20055;-80
2023/11/28 04:38:05;;;;;;;0.55;0.55;;;;;;;-2.95;100.00;99577.72;4991976;28;20054;-80
2023/11/28 04:40:33;;;;;;;0.68;0.60;;;;;;;-3.02;100.00;99579.63;4985317;28;20412;-80
2023/11/28 04:43:07;;;;;;;0.50;0.50;;;;;;;-3.08;100.00;99584.78;4992110;28;20043;-80
2023/11/28 04:45:35;;;;;;;0.68;0.68;;;;;;;-3.16;100.00;99578.91;4995732;28;20061;-80
2023/11/28 04:48:08;;;;;;;0.45;0.45;;;;;;;-3.16;100.00;99585.06;5001619;28;20050;-81
2023/11/28 04:50:43;;;;;;;0.60;0.60;;;;;;;-3.22;100.00;99583.25;5011556;28;20409;-83
2023/11/28 04:53:11;;;;;;;0.65;0.65;;;;;;;-3.28;100.00;99584.13;4985701;28;20080;-81
2023/11/28 04:55:39;;;;;;;0.50;0.50;;;;;;;-3.29;100.00;99590.47;4992955;28;20545;-80
2023/11/28 04:58:13;;;;;;;2.65;0.70;;;;;;;-3.37;100.00;99588.91;5000946;28;20046;-80
2023/11/28 05:00:41;;;;;;;0.57;0.57;;;;;;;-3.41;100.00;99585.03;4992790;28;20046;-81
2023/11/28 05:03:15;;;;;;;1.33;0.68;;;;;;;-3.38;100.00;99595.25;5005497;28;20050;-81
2023/11/28 05:05:44;;;;;;;3.22;0.85;;;;;;;-3.41;100.00;99595.69;4987373;28;20046;-82
2023/11/28 05:08:19;;;;;;;0.50;0.50;;;;;;;-3.45;100.00;99592.63;4991891;28;20723;-81
2023/11/28 05:10:47;;;;;;;0.50;0.50;;;;;;;-3.47;100.00;99589.34;4992887;28;20050;-80
2023/11/28 05:13:15;;;;;;;0.47;0.47;;;;;;;-3.42;100.00;99588.72;4995932;28;20065;-80
2023/11/28 05:15:44;;;;;;;1.02;0.57;;;;;;;-3.40;100.00;99594.63;4993188;28;20046;-81
2023/11/28 05:18:12;;;;;;;0.45;0.45;;;;;;;-3.39;100.00;99604.25;4990046;28;20046;-81
2023/11/28 05:20:48;;;;;;;1.65;0.88;;;;;;;-3.38;100.00;99607.69;5002788;28;20054;-80
2023/11/28 05:23:22;;;;;;;0.77;0.70;;;;;;;-3.39;100.00;99600.78;5028505;28;20045;-80
2023/11/28 05:25:55;;;;;;;1.00;0.80;;;;;;;-3.36;100.00;99601.16;4992652;28;20051;-80
2023/11/28 05:28:24;;;;;;;1.00;0.77;;;;;;;-3.34;100.00;99599.09;4992066;28;20070;-80
2023/11/28 05:30:52;;;;;;;0.70;0.70;;;;;;;-3.29;100.00;99595.78;5003756;28;20483;-80
2023/11/28 05:33:25;;;;;;;0.50;0.50;;;;;;;-3.25;100.00;99605.78;4989601;28;20054;-80
2023/11/28 05:35:54;;;;;;;2.53;1.10;;;;;;;-3.22;100.00;99599.22;4989953;28;20046;-81
2023/11/28 05:38:23;;;;;;;0.52;0.52;;;;;;;-3.08;100.00;99603.41;4989048;28;20051;-81
2023/11/28 05:40:56;;;;;;;1.77;1.13;;;;;;;-3.10;100.00;99592.16;4997934;28;20053;-80
2023/11/28 05:43:24;;;;;;;4.90;1.17;;;;;;;-3.00;100.00;99610.31;4988873;28;20054;-80
2023/11/28 05:45:58;;;;;;;1.02;0.82;;;;;;;-2.87;100.00;99604.06;5007915;28;20050;-81
2023/11/28 05:48:26;;;;;;;0.70;0.70;;;;;;;-2.88;100.00;99597.09;4986090;28;20061;-82
2023/11/28 05:50:56;;;;;;;1.85;1.02;;;;;;;-2.75;100.00;99598.84;4990714;28;20051;-81
2023/11/28 05:53:29;;;;;;;0.90;0.80;;;;;;;-2.63;100.00;99605.06;5001989;28;20050;-80
2023/11/28 05:56:04;;;;;;;0.73;0.73;;;;;;;-2.62;100.00;99604.03;4988087;28;20069;-81
2023/11/28 05:58:32;;;;;;;0.93;0.90;;;;;;;-2.56;100.00;99602.34;4987280;28;20062;-82
2023/11/28 06:01:06;;;;;;;1.25;1.02;;;;;;;-2.61;100.00;99595.03;4987628;28;20057;-82
2023/11/28 06:03:40;;;;;;;0.65;0.65;;;;;;;-2.56;100.00;99592.50;4991848;28;20046;-80
2023/11/28 06:06:10;;;;;;;1.35;0.95;;;;;;;-2.59;100.00;99602.78;5013222;28;20053;-81
2023/11/28 06:08:38;;;;;;;1.40;1.10;;;;;;;-2.55;100.00;99603.97;4988953;28;20058;-81
2023/11/28 06:11:09;;;;;;;2.40;1.42;;;;;;;-2.45;100.00;99611.47;4989883;28;20057;-81
2023/11/28 06:13:42;;;;;;;1.23;1.13;;;;;;;-2.41;100.00;99602.81;4989013;28;20065;-81
2023/11/28 06:16:10;;;;;;;1.20;0.95;;;;;;;-2.38;100.00;99622.06;5002977;28;20514;-81
2023/11/28 06:18:39;;;;;;;0.75;0.73;;;;;;;-2.36;100.00;99615.47;4989553;28;20058;-81
2023/11/28 06:21:09;;;;;;;0.70;0.70;;;;;;;-2.35;100.00;99613.63;4992356;28;20050;-80
2023/11/28 06:23:44;;;;;;;1.27;0.98;;;;;;;-2.33;100.00;99631.03;4989913;28;20479;-81
2023/11/28 06:26:13;;;;;;;0.95;0.88;;;;;;;-2.30;100.00;99632.44;5003984;28;20050;-81
2023/11/28 06:28:42;;;;;;;0.80;0.80;;;;;;;-2.28;100.00;99633.84;4986450;28;20051;-81
2023/11/28 06:31:17;;;;;;;1.52;1.25;;;;;;;-2.24;100.00;99632.38;4982589;28;20050;-84
2023/11/28 06:33:50;;;;;;;1.25;0.88;;;;;;;-2.18;100.00;99636.00;4982619;28;20069;-81
2023/11/28 06:36:24;;;;;;;1.05;0.90;;;;;;;-2.16;100.00;99636.56;4986424;28;20774;-81
2023/11/28 06:38:55;;;;;;;1.35;1.05;;;;;;;-2.17;100.00;99640.28;4986356;28;20042;-81
2023/11/28 06:41:24;;;;;;;0.98;0.90;;;;;;;-2.17;100.00;99645.59;4985486;28;20063;-90
2023/11/28 06:43:52;;;;;;;0.70;0.70;;;;;;;-2.17;100.00;99634.94;4994934;28;20046;-88
2023/11/28 06:46:26;;;;;;;0.70;0.70;;;;;;;-2.13;100.00;99649.47;4988142;28;20043;-90
2023/11/28 06:48:59;;;;;;;0.88;0.88;;;;;;;-2.11;100.00;99649.25;5000289;28;20054;-89
2023/11/28 06:51:29;;;;;;;1.20;1.00;;;;;;;-2.14;100.00;99650.50;4993259;28;20085;-87
2023/11/28 06:54:02;;;;;;;0.98;0.80;;;;;;;-2.06;100.00;99662.72;4988450;28;20046;-90
2023/11/28 06:56:37;;;;;;;2.55;1.08;;;;;;;-2.07;100.00;99658.44;4991446;28;20059;-89
2023/11/28 06:59:05;;;;;;;1.10;0.93;;;;;;;-2.02;100.00;99660.44;4999995;28;20101;-89
2023/11/28 07:01:40;;;;;;;1.05;0.93;;;;;;;-2.09;100.00;99663.97;4987356;28;20050;-88
2023/11/28 07:04:14;;;;;;;1.05;0.95;;;;;;;-2.10;100.00;99669.53;4990835;28;20419;-90
2023/11/28 07:06:49;;;;;;;1.52;1.25;;;;;;;-2.08;100.00;99670.13;4981233;28;20055;-89
2023/11/28 07:09:22;;;;;;;3.63;1.20;;;;;;;-2.02;100.00;99666.56;4984810;28;20058;-89
2023/11/28 07:11:55;;;;;;;2.17;1.13;;;;;;;-1.96;100.00;99670.19;4987845;28;20057;-86
2023/11/28 07:14:29;;;;;;;1.17;1.08;;;;;;;-1.96;100.00;99675.53;4992157;28;20065;-89
2023/11/28 07:17:02;;;;;;;1.48;1.10;;;;;;;-1.98;100.00;99670.41;5011272;28;20050;-90
2023/11/28 07:19:35;;;;;;;1.30;1.00;;;;;;;-1.92;100.00;99676.72;4991239;28;20050;-89
2023/11/28 07:22:10;;;;;;;2.50;1.38;;;;;;;-1.93;100.00;99675.91;4991521;28;20495;-89
2023/11/28 07:24:47;;;;;;;1.13;0.98;;;;;;;-1.95;100.00;99674.50;5004592;28;20991;-89
2023/11/28 07:27:20;;;;;;;2.20;1.00;;;;;;;-2.09;100.00;99671.16;5008180;28;20108;-87
2023/11/28 07:29:48;;;;;;;0.73;0.73;;;;;;;-2.12;100.00;99675.09;5011438;28;20410;-89
2023/11/28 07:32:16;;;;;;;2.30;1.73;;;;;;;-2.21;100.00;99681.72;4990650;28;20054;-89
2023/11/28 07:34:50;;;;;;;3.53;1.98;;;;;;;-2.26;100.00;99681.59;4990608;28;20662;-90
2023/11/28 07:37:24;;;;;;;1.42;1.15;;;;;;;-2.28;100.00;99691.66;4989951;28;20050;-90
2023/11/28 07:39:53;;;;;;;0.80;0.80;;;;;;;-2.28;100.00;99689.81;4996609;28;20406;-90
2023/11/28 07:42:21;;;;;;;0.68;0.68;;;;;;;-2.22;100.00;99693.44;4994721;28;20061;-91
2023/11/28 07:44:54;;;;;;;3.45;1.40;;;;;;;-2.31;100.00;99689.44;5008284;28;20511;-90
2023/11/28 07:47:28;;;;;;;1.58;1.15;;;;;;;-2.27;100.00;99695.94;4988427;28;20034;-89
2023/11/28 07:50:01;;;;;;;1.70;1.40;;;;;;;-2.31;100.00;99703.56;4988530;28;20042;-89
2023/11/28 07:52:31;;;;;;;2.33;1.08;;;;;;;-2.27;100.00;99702.09;4993380;28;20504;-89
2023/11/28 07:55:06;;;;;;;1.55;0.98;;;;;;;-2.25;100.00;99701.88;4991217;28;20050;-87
2023/11/28 07:57:39;;;;;;;1.88;1.05;;;;;;;-2.25;100.00;99712.53;4993738;28;20053;-89
2023/11/28 08:00:09;;;;;;;2.35;1.23;;;;;;;-2.25;100.00;99705.34;4989999;28;20062;-88
2023/11/28 08:02:42;;;;;;;1.30;1.02;;;;;;;-2.24;100.00;99716.81;4984153;28;20077;-89
2023/11/28 08:05:10;;;;;;;0.57;0.57;;;;;;;-2.21;100.00;99721.72;4985993;28;20061;-89
2023/11/28 08:07:40;;;;;;;1.17;1.05;;;;;;;-2.29;100.00;99719.31;5005244;28;20047;-90
2023/11/28 08:10:14;;;;;;;1.17;0.85;;;;;;;-2.33;100.00;99720.81;5004998;28;20039;-90
2023/11/28 08:12:42;;;;;;;1.20;1.10;;;;;;;-2.33;100.00;99736.81;4997080;28;20043;-90
2023/11/28 08:15:11;;;;;;;2.03;1.45;;;;;;;-2.49;100.00;99727.50;4988238;28;20054;-90
2023/11/28 08:17:45;;;;;;;1.60;0.50;;;;;;;-2.39;100.00;99741.13;4993717;28;20051;-90
2023/11/28 08:20:13;;;;;;;1.98;1.60;;;;;;;-2.41;100.00;99745.88;4994950;28;20053;-90
2023/11/28 08:22:43;;;;;;;2.28;1.77;;;;;;;-2.48;100.00;99751.25;4986267;28;20047;-89
2023/11/28 08:25:16;;;;;;;2.22;1.63;;;;;;;-2.46;100.00;99743.88;4992371;28;20486;-87
2023/11/28 08:27:44;;;;;;;2.97;2.08;;;;;;;-2.59;100.00;99752.78;4950618;28;20077;-87
2023/11/28 08:30:13;;;;;;;1.95;1.40;;;;;;;-2.53;100.00;99755.59;4984731;28;20396;-86
2023/11/28 08:32:41;;;;;;;1.23;1.10;;;;;;;-2.51;100.00;99748.19;4990066;28;20060;-87
2023/11/28 08:35:15;;;;;;;0.90;0.85;;;;;;;-2.60;100.00;99743.13;4973976;28;20073;-88
2023/11/28 08:37:50;;;;;;;1.33;1.00;;;;;;;-2.57;100.00;99755.22;4980817;28;20778;-83
2023/11/28 08:40:18;;;;;;;3.92;2.20;;;;;;;-2.58;100.00;99743.75;4983796;28;20054;-84
2023/11/28 08:42:47;;;;;;;1.13;0.98;;;;;;;-2.52;100.00;99757.25;4981732;28;20050;-83
2023/11/28 08:45:20;;;;;;;1.77;1.30;;;;;;;-2.59;100.00;99747.44;4978879;28;20050;-86
2023/11/28 08:47:49;;;;;;;1.02;0.93;;;;;;;-2.58;100.00;99754.41;4982405;28;20046;-83
2023/11/28 08:50:17;;;;;;;0.93;0.82;;;;;;;-2.43;100.00;99759.44;4977010;28;20060;-84
2023/11/28 08:52:45;;;;;;;3.08;1.90;;;;;;;-2.54;100.00;99756.63;4983378;28;20058;-85
2023/11/28 08:55:20;;;;;;;4.22;1.92;;;;;;;-2.58;100.00;99764.25;4979905;28;20050;-87
2023/11/28 08:57:49;;;;;;;4.30;1.85;;;;;;;-2.70;100.00;99760.66;4981909;28;20057;-89
2023/11/28 09:00:22;;;;;;;3.20;2.20;;;;;;;-2.67;100.00;99765.53;4985834;28;20084;-87
2023/11/28 09:02:51;;;;;;;3.78;2.35;;;;;;;-2.71;100.00;99773.13;4982132;28;20081;-85
2023/11/28 09:05:20;;;;;;;3.50;1.75;;;;;;;-2.70;100.00;99771.31;4984040;28;20057;-85
2023/11/28 09:07:49;;;;;;;1.88;1.63;;;;;;;-2.67;100.00;99777.00;4985089;28;20046;-89
2023/11/28 09:10:16;;;;;;;4.07;2.35;;;;;;;-2.67;100.00;99776.19;4986637;28;20054;-87
2023/11/28 09:12:51;;;;;;;4.60;2.30;;;;;;;-2.63;100.00;99778.19;4984520;28;20034;-88
2023/11/28 09:15:19;;;;;;;3.22;1.73;;;;;;;-2.56;100.00;99776.31;4976691;28;20960;-88
2023/11/28 09:17:47;;;;;;;2.15;1.70;;;;;;;-2.67;100.00;99787.66;4985174;28;20050;-86
2023/11/28 09:20:16;;;;;;;1.27;1.08;;;;;;;-2.57;100.00;99774.69;4988955;28;20049;-84
2023/11/28 09:22:44;;;;;;;1.48;1.10;;;;;;;-2.56;100.00;99786.97;4977994;28;21046;-84
2023/11/28 09:25:17;;;;;;;1.83;1.45;;;;;;;-2.57;100.00;99774.69;4978265;28;20061;-86
2023/11/28 09:27:45;;;;;;;1.10;1.02;;;;;;;-2.49;100.00;99794.09;4956376;28;20627;-83
2023/11/28 09:30:20;;;;;;;1.30;1.20;;;;;;;-2.57;100.00;99801.34;4981338;28;20458;-88
2023/11/28 09:32:53;;;;;;;1.38;1.20;;;;;;;-2.55;100.00;99790.47;4978901;28;20054;-84
2023/11/28 09:35:23;;;;;;;2.08;1.20;;;;;;;-2.56;100.00;99796.81;5002838;28;20757;-89
2023/11/28 09:37:52;;;;;;;1.23;1.13;;;;;;;-2.57;100.00;99798.66;5001650;28;20114;-88
2023/11/28 09:40:25;;;;;;;1.20;1.10;;;;;;;-2.61;100.00;99799.28;5009185;28;20053;-89
2023/11/28 09:42:57;;;;;;;2.15;1.38;;;;;;;-2.60;100.00;99809.72;5001997;28;20053;-85
2023/11/28 09:45:35;;;;;;;4.22;1.52;;;;;;;-2.59;100.00;99803.38;4997739;28;20057;-86
2023/11/28 09:48:10;;;;;;;2.92;1.27;;;;;;;-2.54;100.00;99794.75;4994876;28;20061;-87
2023/11/28 09:50:48;;;;;;;1.23;1.00;;;;;;;-2.57;100.00;99814.66;4996697;28;20064;-85
2023/11/28 09:53:23;;;;;;;2.17;1.60;;;;;;;-2.49;100.00;99812.75;5007359;28;20060;-89
2023/11/28 09:55:53;;;;;;;1.70;1.42;;;;;;;-2.61;100.00;99820.59;4998787;28;20042;-88
2023/11/28 09:58:21;;;;;;;1.10;1.00;;;;;;;-2.67;100.00;99813.47;5002254;28;20398;-86
2023/11/28 10:00:51;;;;;;;3.20;1.73;;;;;;;-2.66;100.00;99815.94;4999304;28;20057;-87
2023/11/28 10:03:20;;;;;;;4.40;1.60;;;;;;;-2.71;100.00;99823.72;5000177;28;20160;-86
2023/11/28 10:05:55;;;;;;;1.13;0.65;;;;;;;-2.76;100.00;99818.25;5004964;28;20064;-83
2023/11/28 10:08:29;;;;;;;2.88;1.33;;;;;;;-2.77;100.00;99820.09;5004638;28;20053;-87
2023/11/28 10:11:04;;;;;;;0.80;0.65;;;;;;;-2.63;100.00;99831.47;5008269;28;20054;-88
2023/11/28 10:13:33;;;;;;;2.00;1.30;;;;;;;-2.61;100.00;99824.09;5000116;28;20046;-91
2023/11/28 10:16:03;;;;;;;1.70;1.38;;;;;;;-2.69;100.00;99815.53;5011278;28;20745;-87
2023/11/28 10:18:31;;;;;;;1.55;0.93;;;;;;;-2.75;100.00;99822.53;4999595;28;20061;-84
2023/11/28 10:21:00;;;;;;;1.38;0.98;;;;;;;-2.65;100.00;99827.38;5001877;28;20062;-87
2023/11/28 10:23:34;;;;;;;0.60;0.60;;;;;;;-2.60;100.00;99828.38;5000249;28;20068;-83
2023/11/28 10:26:02;;;;;;;2.25;1.02;;;;;;;-2.58;100.00;99831.66;5001189;28;20655;-83
2023/11/28 10:28:30;;;;;;;1.45;0.90;;;;;;;-2.60;100.00;99819.59;4971319;28;20045;-85
2023/11/28 10:31:07;;;;;;;1.67;1.10;;;;;;;-2.68;100.00;99835.81;5001704;28;20399;-86
2023/11/28 10:33:35;;;;;;;1.85;1.20;;;;;;;-2.62;100.00;99832.31;5001143;28;20062;-89
2023/11/28 10:36:09;;;;;;;1.33;1.05;;;;;;;-2.55;100.00;99833.09;5007436;28;20038;-87
2023/11/28 10:38:43;;;;;;;1.25;1.02;;;;;;;-2.69;100.00;99816.38;5001735;28;20073;-84
2023/11/28 10:41:11;;;;;;;1.75;1.35;;;;;;;-2.59;100.00;99832.69;4998197;28;20075;-87
2023/11/28 10:43:39;;;;;;;2.22;1.25;;;;;;;-2.67;100.00;99819.63;5003575;28;20050;-87
2023/11/28 10:46:16;;;;;;;1.55;1.05;;;;;;;-2.59;100.00;99826.56;5000374;28;20086;-86
2023/11/28 10:48:44;;;;;;;1.20;1.10;;;;;;;-2.51;100.00;99839.63;5001898;28;21056;-85
2023/11/28 10:51:14;;;;;;;1.77;1.10;;;;;;;-2.64;100.00;99837.03;5007705;28;20429;-87
2023/11/28 10:53:46;;;;;;;1.80;1.50;;;;;;;-2.61;100.00;99836.59;5003609;28;20045;-88
2023/11/28 10:56:19;;;;;;;3.00;1.58;;;;;;;-2.62;100.00;99837.63;5001718;28;20058;-86
2023/11/28 10:58:48;;;;;;;0.93;0.80;;;;;;;-2.56;100.00;99839.44;5002452;28;20049;-86
2023/11/28 11:01:22;;;;;;;1.52;1.17;;;;;;;-2.75;100.00;99827.84;5006384;28;20061;-86
2023/11/28 11:03:51;;;;;;;0.95;0.88;;;;;;;-2.55;100.00;99841.06;5008115;28;20069;-83
2023/11/28 11:06:25;;;;;;;1.20;1.10;;;;;;;-2.44;100.00;99845.72;5000080;28;20042;-84
2023/11/28 11:08:55;;;;;;;2.13;1.30;;;;;;;-2.58;100.00;99855.63;5003254;28;20692;-87
2023/11/28 11:11:29;;;;;;;1.85;1.20;;;;;;;-2.66;100.00;99852.41;4998434;28;20064;-87
2023/11/28 11:14:13;;;;;;;1.02;0.60;;;;;;;-2.66;100.00;99863.06;4996221;28;20050;-85
2023/11/28 11:16:48;;;;;;;1.48;1.02;;;;;;;-2.61;100.00;99861.41;5001191;28;20084;-85
2023/11/28 11:19:18;;;;;;;2.17;1.30;;;;;;;-2.67;100.00;99858.75;5001138;28;20077;-87
2023/11/28 11:21:55;;;;;;;2.22;1.13;;;;;;;-2.70;100.00;99865.31;5003057;28;20061;-85
2023/11/28 11:24:28;;;;;;;1.88;1.50;;;;;;;-2.65;100.00;99862.84;4999147;28;20066;-87
2023/11/28 11:27:02;;;;;;;1.15;1.02;;;;;;;-2.63;100.00;99866.09;4978893;28;20053;-86
2023/11/28 11:29:38;;;;;;;2.47;2.22;;;;;;;-2.71;100.00;99858.34;4995346;28;21286;-85
2023/11/28 11:32:11;;;;;;;0.70;0.70;;;;;;;-2.63;100.00;99859.97;4999493;28;20045;-88
2023/11/28 11:34:41;;;;;;;0.65;0.57;;;;;;;-2.63;100.00;99860.78;5001027;28;20065;-87
2023/11/28 11:37:11;;;;;;;1.48;0.90;;;;;;;-2.64;100.00;99861.00;4996450;28;20917;-85
2023/11/28 11:39:46;;;;;;;0.82;0.77;;;;;;;-2.69;100.00;99874.97;5014103;28;20045;-84
2023/11/28 11:42:21;;;;;;;1.10;0.70;;;;;;;-2.68;100.00;99863.28;5002876;28;20049;-86
2023/11/28 11:44:52;;;;;;;1.60;1.10;;;;;;;-2.44;100.00;99858.22;4997415;28;20065;-84
2023/11/28 11:47:23;;;;;;;1.30;0.88;;;;;;;-2.36;100.00;99862.47;5000554;28;20280;-84
2023/11/28 11:49:58;;;;;;;0.95;0.80;;;;;;;-2.34;100.00;99863.91;5003205;28;20068;-87
2023/11/28 11:52:32;;;;;;;1.35;1.15;;;;;;;-2.53;100.00;99862.97;5003184;28;20506;-86
2023/11/28 11:55:05;;;;;;;1.88;1.25;;;;;;;-2.40;100.00;99864.78;5000557;28;20528;-88
2023/11/28 11:57:38;;;;;;;1.20;0.98;;;;;;;-2.27;100.00;99859.34;5001680;28;20060;-87